Flight Track Log - Related Links

Times and Time Zones

All times are in EST time to prevent confusion due to time zone crossing. See the CPT7773 flight status page for this flight to view local times or setup timezone preferences in your user account.

Time Position Orientation Groundspeed Altitude Reporting Facility
EST Latitude Longitude Course Direction KTS MPH feet Rate Location/Type
Wed 08:08:39 PM 44.4931 -109.0092 107° East 133 153 7,000  Level Salt Lake Center
Wed 08:09:40 PM 44.4806 -108.9506 107° East 157 181 8,000 976 Climbing Salt Lake Center
Wed 08:10:42 PM 44.4631 -108.8867 111° Southeast 165 190 9,000 927 Climbing Salt Lake Center
Wed 08:11:43 PM 44.4442 -108.8247 113° Southeast 170 196 9,900 934 Climbing Salt Lake Center
Wed 08:12:44 PM 44.4208 -108.7525 114° Southeast 171 197 10,900 537 Climbing Salt Lake Center
Wed 08:13:46 PM 44.4017 -108.6944 115° Southeast 168 193 11,000 49 Climbing Salt Lake Center
Wed 08:14:47 PM 44.3817 -108.6258 112° Southeast 176 203 11,000  Level Salt Lake Center
Wed 08:15:48 PM 44.3622 -108.5597 112° Southeast 182 209 11,000  Level Salt Lake Center
Wed 08:16:50 PM 44.3242 -108.5039 134° Southeast 191 220 11,000  Level Salt Lake Center
Wed 08:17:51 PM 44.2864 -108.4467 133° Southeast 197 227 11,000  Level Salt Lake Center
Wed 08:18:53 PM 44.2492 -108.3906 133° Southeast 199 229 11,000  Level Salt Lake Center
Wed 08:19:54 PM 44.2147 -108.3361 131° Southeast 195 224 11,000  Level Salt Lake Center
Wed 08:20:55 PM 44.1733 -108.2706 131° Southeast 191 220 11,000  Level Salt Lake Center
Wed 08:21:57 PM 44.1369 -108.2172 134° Southeast 190 219 11,000 49 Level Salt Lake Center
Wed 08:22:58 PM 44.1031 -108.1639 131° Southeast 188 216 11,100  Climbing Salt Lake Center
Wed 08:24:00 PM 44.0669 -108.1089 132° Southeast 189 217 11,000 -49 Descending Salt Lake Center
Wed 08:25:01 PM 44.0311 -108.0550 133° Southeast 191 220 11,000  Level Salt Lake Center
Wed 08:26:03 PM 43.9967 -108.0019 132° Southeast 189 217 11,000  Level Salt Lake Center
Wed 08:27:04 PM 43.9594 -107.9486 134° Southeast 190 219 11,000  Level Salt Lake Center
Wed 08:28:06 PM 43.9289 -107.8903 126° Southeast 189 217 11,000 49 Level Salt Lake Center
Wed 08:29:07 PM 43.8922 -107.8161 124° Southeast 191 220 11,100  Climbing Salt Lake Center
Wed 08:30:09 PM 43.8608 -107.7556 126° Southeast 193 222 11,000 -49 Descending Salt Lake Center
Wed 08:31:10 PM 43.8308 -107.6953 125° Southeast 192 221 11,000  Level Salt Lake Center
Wed 08:32:11 PM 43.7997 -107.6367 126° Southeast 192 221 11,000  Level Salt Lake Center
Wed 08:33:13 PM 43.7700 -107.5800 126° Southeast 188 216 11,000  Level Salt Lake Center
Wed 08:34:14 PM 43.7408 -107.5222 125° Southeast 185 213 11,000  Level Salt Lake Center
Wed 08:35:16 PM 43.7114 -107.4639 125° Southeast 185 213 11,000  Level Salt Lake Center
Wed 08:36:17 PM 43.6794 -107.4019 125° Southeast 190 219 11,000  Level Salt Lake Center
Wed 08:37:18 PM 43.6417 -107.3294 126° Southeast 193 222 11,000 49 Level Salt Lake Center
Wed 08:38:20 PM 43.6100 -107.2700 126° Southeast 194 223 11,100 49 Climbing Salt Lake Center
Wed 08:39:21 PM 43.5789 -107.2081 125° Southeast 195 224 11,100  Level Salt Lake Center
Wed 08:40:23 PM 43.5472 -107.1461 125° Southeast 197 227 11,100  Level Salt Lake Center
Wed 08:41:24 PM 43.5156 -107.0842 125° Southeast 197 227 11,100  Level Salt Lake Center
Wed 08:42:26 PM 43.4833 -107.0233 126° Southeast 198 228 11,100  Level Salt Lake Center
Wed 08:43:27 PM 43.4494 -106.9617 127° Southeast 202 232 11,100  Level Salt Lake Center
Wed 08:44:29 PM 43.4128 -106.8928 126° Southeast 202 232 11,100 49 Level Salt Lake Center
Wed 08:45:30 PM 43.3789 -106.8267 125° Southeast 215 247 11,200 -98 Climbing Salt Lake Center
Wed 08:46:32 PM 43.3353 -106.7481 127° Southeast 230 265 10,900 -390 Descending Salt Lake Center
Wed 08:47:33 PM 43.2911 -106.7006 142° Southeast 215 247 10,400 -390 Descending Salt Lake Center
Wed 08:48:35 PM 43.2233 -106.6669 160° South 226 260 10,100 -146 Descending Salt Lake Center
Wed 08:49:36 PM 43.1714 -106.6322 154° Southeast 223 257 10,100 -537 Level Salt Lake Center
Wed 08:50:38 PM 43.1183 -106.5961 154° Southeast 207 238 9,000 -1,113 Descending Denver Center
Wed 08:51:40 PM 43.0775 -106.5625 149° Southeast 190 219 7,800 -1,065 Descending Denver Center
Wed 08:52:42 PM 43.0269 -106.5233 150° Southeast 186 214 6,800 -484 Descending Denver Center
Wed 08:53:44 PM 42.9844 -106.4919 152° Southeast 185 213 6,800 -97 Level Denver Center
Wed 08:54:46 PM 42.9467 -106.4600 148° Southeast 179 206 6,600 -194 Descending Denver Center
Wed 08:55:48 PM 42.9064 -106.4286 150° Southeast 173 199 6,400 -194 Descending Denver Center

Login

Don't have an account? Register now (free) for customized features, flight alerts, and more!